Aérodrome :
LOGIN :

S'inscrire | Disclaimer

   EN    FR    IT 

 










Légende :    VFR   VFR Marginal   IFR   IFR Intensif   IFR Très Intensif
Visi : 
Plafond : 
>= 8 km
>= 3000ft
5 à 8 km
1000 à 3000 ft
1500m à 5 km
500 à 1000 ft
800 à 1500m
200 à 500 ft
< 800m
< 200 ft
Symboles :   Orages  Brouillard  Fortes neiges  Fortes précipitations  Vent > 20 kt
SIGMETs :   Divers  Orages  Givrage  Turbulence  Onde Orograph.  Cendres Volcan.







- Altitude de l'aérodrome : 27 ft
- Code IATA : PMI


LEPA - Palma de Mallorca

DERNIER METAR :
  • 221400Z 27010KT 9999 SCT035 11/02 Q1010 NOSIG

METARs EXPIRÉS :
  • 221330Z 29010KT 9999 SCT035 11/03 Q1010 NOSIG
  • 221300Z 31009KT 280V340 9999 FEW035 11/02 Q1011 NOSIG
  • 221230Z 32009KT 290V350 9999 FEW030 12/03 Q1012 NOSIG
  • 221200Z 32009KT 290V350 9999 FEW030 12/04 Q1012 NOSIG
  • 221130Z 32011KT 290V350 9999 FEW030 11/03 Q1013 NOSIG

TAF TAF LEPA
Valide du 22 à 12h jusqu'au 23 à 12h UTC


221100Z 2212/2312 28012KT 9999 SCT025 SCT040 TX12/2214Z TN05/2306Z
TEMPO 2218/2301 4000 RA BKN030
TEMPO 2308/2312 RA BKN030
Pas de NOTAMs connus pour ce terrain.
3 SIGMETs publiés pour la FIR Barcelona (LECB) :
 
Onde orographique forte
LECB SIGMET 7 VALID 221300/221700 LEVA
LECB BARCELONA FIR/UIR SEV MTW FCST WI N3830 W00130 - N39 W00030 - N3840 W00010 - N38 W00130 - N3830 W00130 SFC/FL360 STNR NC=
Onde orographique forte
LECB SIGMET 6 VALID 221300/221700 LEVA
LECB BARCELONA FIR/UIR SEV MTW FCST WI N4010 W00130 - N4110 E00020 - N41 E001 - N4010 W00050 - N4010 W00130 SFC/FL360 STNR NC=
Onde orographique forte
LECB SIGMET 5 VALID 221300/221700 LEVA
LECB BARCELONA FIR/UIR SEV MTW FCST N OF LINE N4230 W00010 - N4230 E00110 FL060/360 STNR NC=



MET'MAP, la Météo Aéronautique d'un coup d'oeil ! - Copyright ORBIFLY Décembre 2007 - Disclaimer

ORBIFLY MET'MAP TEAM :

Programmation & Développement : Alexandra Zaïnal
Conception & Développement : Baudouin d'Aumeries
Co-Programmation & Développement : Marc-Olivier Méhu
Soutien technique & logistique : Manuel Goepfert

Contact : metmap@orbifly.com




SOURCES & CREDITS :

   NOAA